createdAt,value
2019-04-25T00:02:32.480Z,0.70
2019-04-25T00:05:03.427Z,0.53
2019-04-25T00:07:35.198Z,0.57
2019-04-25T00:10:06.526Z,0.60
2019-04-25T00:12:37.849Z,0.70
2019-04-25T00:15:09.255Z,0.53
2019-04-25T00:17:40.482Z,0.57
2019-04-25T00:20:12.305Z,0.50
2019-04-25T00:22:49.261Z,0.70
2019-04-25T00:25:41.517Z,0.40
2019-04-25T00:28:11.908Z,0.50
2019-04-25T00:30:43.471Z,0.77
2019-04-25T00:33:14.615Z,0.70
2019-04-25T00:35:45.787Z,0.70
2019-04-25T00:38:16.346Z,0.40
2019-04-25T00:40:46.777Z,0.70
2019-04-25T00:43:17.209Z,0.50
2019-04-25T00:45:47.839Z,0.50
2019-04-25T00:48:18.329Z,0.60
2019-04-25T00:50:48.788Z,0.80
2019-04-25T00:53:19.228Z,0.60
2019-04-25T00:55:51.624Z,0.60
2019-04-25T00:58:33.231Z,0.50
2019-04-25T01:01:21.839Z,0.60
2019-04-25T01:03:53.639Z,0.63
2019-04-25T01:06:25.108Z,0.67
2019-04-25T01:08:55.904Z,0.90
2019-04-25T01:11:26.500Z,0.80
2019-04-25T01:13:57.165Z,0.80
2019-04-25T01:16:27.671Z,0.40
2019-04-25T01:18:58.515Z,0.63
2019-04-25T01:21:29.104Z,0.50
2019-04-25T01:24:00.057Z,0.60
2019-04-25T01:26:30.810Z,0.60
2019-04-25T01:29:01.451Z,0.80
2019-04-25T01:31:33.587Z,0.57
2019-04-25T01:34:06.988Z,0.50
2019-04-25T01:36:48.638Z,0.70
2019-04-25T01:39:51.102Z,0.67
2019-04-25T01:42:53.909Z,0.80
2019-04-25T01:45:28.168Z,0.67
2019-04-25T01:47:58.606Z,0.47
2019-04-25T01:50:30.150Z,1.00
2019-04-25T01:53:00.660Z,0.77
2019-04-25T01:55:31.113Z,0.50
2019-04-25T01:58:01.617Z,0.80
2019-04-25T02:00:36.608Z,0.50
2019-04-25T02:03:07.567Z,0.60
2019-04-25T02:05:38.016Z,0.70
2019-04-25T02:08:09.455Z,0.73
2019-04-25T02:10:40.638Z,0.90
2019-04-25T02:13:13.936Z,0.40
2019-04-25T02:15:44.646Z,0.70
2019-04-25T02:18:15.101Z,0.60
2019-04-25T02:20:45.550Z,0.60
2019-04-25T02:23:16.085Z,0.50
2019-04-25T02:25:46.524Z,0.70
2019-04-25T02:28:17.259Z,0.60
2019-04-25T02:30:47.937Z,0.70
2019-04-25T02:33:18.792Z,0.60
2019-04-25T02:35:49.257Z,0.90
2019-04-25T02:38:19.826Z,0.40
2019-04-25T02:40:50.476Z,1.03
2019-04-25T02:43:21.300Z,0.50
2019-04-25T02:46:15.173Z,0.40
2019-04-25T02:49:26.511Z,0.70
2019-04-25T02:51:47.953Z,0.60
2019-04-25T02:54:18.429Z,0.77
2019-04-25T02:56:48.913Z,0.40
2019-04-25T02:59:19.570Z,0.60
2019-04-25T03:01:50.462Z,0.53
2019-04-25T03:04:20.938Z,0.60
2019-04-25T03:06:51.496Z,0.60
2019-04-25T03:09:22.021Z,1.00
2019-04-25T03:11:54.638Z,0.60
2019-04-25T03:14:26.821Z,0.87
2019-04-25T03:16:58.635Z,0.53
2019-04-25T03:19:54.062Z,0.60
2019-04-25T03:22:26.837Z,0.97
2019-04-25T03:24:57.390Z,0.60
2019-04-25T03:27:27.886Z,0.70
2019-04-25T03:29:59.611Z,0.63
2019-04-25T03:32:30.405Z,0.40
2019-04-25T03:35:01.287Z,0.70
2019-04-25T03:37:33.046Z,0.60
2019-04-25T03:40:05.600Z,0.60
2019-04-25T03:42:36.608Z,0.80
2019-04-25T03:45:07.169Z,0.87
2019-04-25T03:47:37.671Z,0.77
2019-04-25T03:50:08.390Z,0.60
2019-04-25T03:52:38.854Z,0.97
2019-04-25T03:55:10.199Z,1.10
2019-04-25T03:57:40.763Z,0.93
2019-04-25T04:00:11.450Z,0.80
2019-04-25T04:02:41.926Z,0.70
2019-04-25T04:05:13.928Z,0.80
2019-04-25T04:07:45.577Z,0.83
2019-04-25T04:10:16.080Z,0.80
2019-04-25T04:12:46.684Z,0.70
2019-04-25T04:15:18.237Z,0.80
2019-04-25T04:18:16.262Z,0.60
2019-04-25T04:21:07.580Z,0.60
2019-04-25T04:23:45.600Z,0.70
2019-04-25T04:26:16.490Z,0.77
2019-04-25T04:28:46.997Z,0.83
2019-04-25T04:31:17.494Z,0.87
2019-04-25T04:33:48.032Z,1.00
2019-04-25T04:36:19.525Z,1.13
2019-04-25T04:38:50.031Z,0.83
2019-04-25T04:41:20.637Z,0.77
2019-04-25T04:43:51.061Z,0.50
2019-04-25T04:46:21.544Z,0.57
2019-04-25T04:48:51.997Z,0.83
2019-04-25T04:51:23.435Z,0.77
2019-04-25T04:53:54.009Z,0.47
2019-04-25T04:56:25.767Z,0.60
2019-04-25T04:58:56.455Z,1.00
2019-04-25T05:01:28.602Z,0.60
2019-04-25T05:04:20.931Z,0.50
2019-04-25T05:07:16.322Z,0.87
2019-04-25T05:09:46.852Z,0.67
2019-04-25T05:12:17.503Z,0.77
2019-04-25T05:14:48.280Z,0.40
2019-04-25T05:17:19.552Z,0.60
2019-04-25T05:19:50.266Z,0.60
2019-04-25T05:22:20.732Z,1.03
2019-04-25T05:24:51.232Z,0.70
2019-04-25T05:27:37.145Z,0.70
2019-04-25T05:29:54.021Z,0.50
2019-04-25T05:32:25.216Z,0.60
2019-04-25T05:34:55.782Z,0.70
2019-04-25T05:37:26.539Z,0.60
2019-04-25T05:39:57.125Z,0.60
2019-04-25T05:42:47.328Z,0.70
2019-04-25T05:45:19.081Z,0.80
2019-04-25T05:47:50.486Z,0.90
2019-04-25T05:50:21.992Z,0.70
2019-04-25T05:52:54.142Z,0.77
2019-04-25T05:55:25.234Z,0.70
2019-04-25T05:57:55.878Z,0.90
2019-04-25T06:00:27.128Z,0.67
2019-04-25T06:02:57.654Z,0.83
2019-04-25T06:05:28.434Z,0.60
2019-04-25T06:07:59.926Z,1.23
2019-04-25T06:10:45.219Z,0.80
2019-04-25T06:13:38.719Z,0.70
2019-04-25T06:16:14.249Z,0.57
2019-04-25T06:18:54.915Z,0.93
2019-04-25T06:21:25.710Z,0.50
2019-04-25T06:24:19.322Z,0.70
2019-04-25T06:27:11.828Z,0.70
2019-04-25T06:29:43.182Z,0.73
2019-04-25T06:32:14.261Z,0.70
2019-04-25T06:34:45.416Z,0.90
2019-04-25T06:37:16.508Z,0.97
2019-04-25T06:39:47.001Z,0.90
2019-04-25T06:42:17.811Z,0.80
2019-04-25T06:44:59.409Z,0.83
2019-04-25T06:47:51.863Z,0.93
2019-04-25T06:50:23.077Z,0.70
2019-04-25T06:52:54.597Z,1.43
2019-04-25T06:55:26.397Z,1.23
2019-04-25T06:58:09.124Z,1.50
2019-04-25T07:00:31.828Z,0.83
2019-04-25T07:03:02.164Z,0.80
2019-04-25T07:05:39.699Z,0.80
2019-04-25T07:08:04.975Z,1.30
2019-04-25T07:10:35.702Z,0.93
2019-04-25T07:13:06.291Z,0.87
2019-04-25T07:15:36.793Z,0.87
2019-04-25T07:18:07.323Z,1.37
2019-04-25T07:20:37.841Z,0.90
2019-04-25T07:23:08.289Z,1.20
2019-04-25T07:25:43.756Z,1.00
2019-04-25T07:28:35.689Z,1.30
2019-04-25T07:31:28.079Z,1.43
2019-04-25T07:34:18.565Z,1.07
2019-04-25T07:36:49.072Z,1.30
2019-04-25T07:39:19.607Z,1.63
2019-04-25T07:41:50.101Z,1.10
2019-04-25T07:44:28.502Z,1.00
2019-04-25T07:46:54.322Z,0.90
2019-04-25T07:49:26.821Z,1.27
2019-04-25T07:51:57.406Z,1.97
2019-04-25T07:54:28.965Z,1.30
2019-04-25T07:56:59.673Z,1.27
2019-04-25T07:59:30.966Z,1.47
2019-04-25T08:02:03.300Z,1.73
2019-04-25T08:04:35.712Z,1.33
2019-04-25T08:07:06.101Z,1.67
2019-04-25T08:09:37.064Z,1.33
2019-04-25T08:12:08.481Z,1.37
2019-04-25T08:14:54.219Z,1.00
2019-04-25T08:17:44.157Z,1.10
2019-04-25T08:20:15.541Z,1.10
2019-04-25T08:22:56.277Z,1.00
2019-04-25T08:25:18.650Z,1.10
2019-04-25T08:27:49.599Z,0.87
2019-04-25T08:30:20.101Z,1.17
2019-04-25T08:32:50.974Z,1.00
2019-04-25T08:35:21.599Z,1.20
2019-04-25T08:37:53.777Z,1.03
2019-04-25T08:40:24.539Z,1.07
2019-04-25T08:42:55.202Z,1.10
2019-04-25T08:45:25.843Z,1.17
2019-04-25T08:47:56.334Z,1.60
2019-04-25T08:50:39.306Z,0.97
2019-04-25T08:53:08.482Z,1.20
2019-04-25T08:55:47.082Z,0.73
2019-04-25T08:58:29.633Z,0.97
2019-04-25T09:01:28.515Z,0.70
2019-04-25T09:04:07.583Z,0.67
2019-04-25T09:06:38.604Z,0.97
2019-04-25T09:09:09.316Z,1.10
2019-04-25T09:11:40.102Z,0.90
2019-04-25T09:14:11.106Z,0.73
2019-04-25T09:16:43.938Z,0.70
2019-04-25T09:19:14.501Z,1.07
2019-04-25T09:21:49.381Z,0.50
2019-04-25T09:24:18.445Z,0.90
2019-04-25T09:26:49.179Z,1.20
2019-04-25T09:29:20.059Z,0.60
2019-04-25T09:31:50.876Z,0.87
2019-04-25T09:34:21.452Z,0.50
2019-04-25T09:36:53.540Z,0.80
2019-04-25T09:39:35.582Z,0.60
2019-04-25T09:42:06.458Z,0.50
2019-04-25T09:44:58.879Z,0.80
2019-04-25T09:47:29.399Z,0.53
2019-04-25T09:50:01.569Z,0.60
2019-04-25T09:52:33.935Z,0.40
2019-04-25T09:55:13.371Z,0.50
2019-04-25T09:58:06.119Z,0.50
2019-04-25T10:00:40.221Z,1.20
2019-04-25T10:03:11.047Z,0.50
2019-04-25T10:05:42.474Z,0.50
2019-04-25T10:08:13.498Z,0.40
2019-04-25T10:10:44.663Z,0.60
2019-04-25T10:13:15.254Z,0.40
2019-04-25T10:15:55.144Z,0.50
2019-04-25T10:18:25.582Z,0.53
2019-04-25T10:20:56.330Z,0.40
2019-04-25T10:23:26.843Z,0.50
2019-04-25T10:25:58.350Z,0.50
2019-04-25T10:28:29.063Z,0.50
2019-04-25T10:30:59.580Z,0.63
2019-04-25T10:33:30.081Z,0.50
2019-04-25T10:36:01.186Z,0.57
2019-04-25T10:38:33.412Z,0.63
2019-04-25T10:41:04.531Z,0.40
2019-04-25T10:43:35.334Z,0.53
2019-04-25T10:46:06.226Z,0.60
2019-04-25T10:48:37.278Z,0.60
2019-04-25T10:51:07.781Z,0.60
2019-04-25T10:53:38.232Z,0.43
2019-04-25T10:56:08.979Z,0.60
2019-04-25T10:58:40.187Z,0.60
2019-04-25T11:01:10.917Z,0.77
2019-04-25T11:03:48.974Z,0.70
2019-04-25T11:06:23.304Z,0.70
2019-04-25T11:08:56.422Z,0.70
2019-04-25T11:11:26.556Z,0.50
2019-04-25T11:13:58.739Z,0.67
2019-04-25T11:16:29.382Z,0.60
2019-04-25T11:19:00.142Z,0.70
2019-04-25T11:21:30.995Z,0.60
2019-04-25T11:24:01.559Z,0.60
2019-04-25T11:26:34.498Z,0.77
2019-04-25T11:29:04.486Z,0.70
2019-04-25T11:31:40.763Z,0.60
2019-04-25T11:34:11.542Z,0.70
2019-04-25T11:36:42.987Z,0.63
2019-04-25T11:39:33.643Z,0.53
2019-04-25T11:42:09.050Z,0.50
2019-04-25T11:44:39.681Z,0.70
2019-04-25T11:47:11.230Z,0.80
2019-04-25T11:49:42.288Z,0.67
2019-04-25T11:52:21.371Z,0.70
2019-04-25T11:54:46.934Z,0.70
2019-04-25T11:57:18.837Z,0.70
2019-04-25T11:59:50.546Z,0.50
2019-04-25T12:02:23.842Z,0.53
2019-04-25T12:04:55.252Z,0.67
2019-04-25T12:07:26.214Z,0.70
2019-04-25T12:09:56.982Z,0.80
2019-04-25T12:12:27.788Z,0.87
2019-04-25T12:14:58.376Z,0.63
2019-04-25T12:17:29.074Z,0.70
2019-04-25T12:19:59.592Z,0.70
2019-04-25T12:22:31.436Z,0.63
2019-04-25T12:25:01.966Z,0.77
2019-04-25T12:27:34.116Z,0.60
2019-04-25T12:30:05.393Z,0.80
2019-04-25T12:32:37.491Z,0.80
2019-04-25T12:35:08.145Z,0.60
2019-04-25T12:37:38.665Z,0.50
2019-04-25T12:40:10.824Z,0.70
2019-04-25T12:42:41.345Z,0.80
2019-04-25T12:45:25.085Z,0.67
2019-04-25T12:47:58.000Z,0.80
2019-04-25T12:50:27.932Z,0.70
2019-04-25T12:52:58.731Z,0.70
2019-04-25T12:55:29.424Z,0.50
2019-04-25T12:58:00.017Z,0.70
2019-04-25T13:00:34.185Z,0.53
2019-04-25T13:03:06.916Z,0.80
2019-04-25T13:05:37.353Z,1.03
2019-04-25T13:08:08.170Z,0.70
2019-04-25T13:10:38.732Z,0.60
2019-04-25T13:13:09.442Z,0.70
2019-04-25T13:15:39.955Z,0.73
2019-04-25T13:18:10.404Z,0.77
2019-04-25T13:20:40.970Z,0.50
2019-04-25T13:23:11.646Z,0.60
2019-04-25T13:25:44.064Z,0.57
2019-04-25T13:28:44.172Z,0.80
2019-04-25T13:31:33.780Z,0.73
2019-04-25T13:34:36.097Z,0.53
2019-04-25T13:36:58.355Z,0.60
2019-04-25T13:39:29.065Z,0.67
2019-04-25T13:42:00.998Z,0.40
2019-04-25T13:44:31.878Z,0.47
2019-04-25T13:47:04.115Z,0.50
2019-04-25T13:49:34.957Z,0.70
2019-04-25T13:52:06.196Z,0.57
2019-04-25T13:54:36.794Z,0.40
2019-04-25T13:57:07.368Z,0.50
2019-04-25T13:59:37.836Z,0.50
2019-04-25T14:02:09.867Z,1.00
2019-04-25T14:04:40.614Z,0.70
2019-04-25T14:07:11.120Z,0.70
2019-04-25T14:09:43.249Z,0.60
2019-04-25T14:12:14.814Z,0.60
2019-04-25T14:14:46.015Z,0.70
2019-04-25T14:17:36.577Z,0.40
2019-04-25T14:20:26.499Z,0.80
2019-04-25T14:22:57.350Z,0.50
2019-04-25T14:25:28.479Z,0.50
2019-04-25T14:27:59.300Z,0.50
2019-04-25T14:30:30.947Z,0.50
2019-04-25T14:33:01.468Z,0.50
2019-04-25T14:35:33.327Z,0.40
2019-04-25T14:38:04.385Z,0.50
2019-04-25T14:40:35.945Z,0.40
2019-04-25T14:43:06.603Z,0.50
2019-04-25T14:45:44.334Z,0.80
2019-04-25T14:48:10.392Z,0.57
2019-04-25T14:50:41.929Z,0.40
2019-04-25T14:53:12.451Z,0.50
2019-04-25T14:56:00.539Z,0.40
2019-04-25T14:58:33.516Z,0.53
2019-04-25T15:01:04.679Z,0.60
2019-04-25T15:03:35.498Z,0.50
2019-04-25T15:06:06.316Z,0.67
2019-04-25T15:08:36.852Z,0.60
2019-04-25T15:11:07.433Z,0.40
2019-04-25T15:13:38.357Z,0.40
2019-04-25T15:16:08.851Z,0.70
2019-04-25T15:18:46.465Z,0.50
2019-04-25T15:21:11.525Z,0.40
2019-04-25T15:23:42.084Z,0.50
2019-04-25T15:26:12.704Z,0.53
2019-04-25T15:28:43.622Z,0.87
2019-04-25T15:31:14.338Z,0.40
2019-04-25T15:33:44.871Z,0.50
2019-04-25T15:36:34.416Z,0.73
2019-04-25T15:39:35.281Z,0.60
2019-04-25T15:42:23.636Z,0.63
2019-04-25T15:45:03.714Z,0.40
2019-04-25T15:47:34.228Z,0.50
2019-04-25T15:50:04.973Z,0.53
2019-04-25T15:52:36.034Z,0.70
2019-04-25T15:55:07.961Z,0.60
2019-04-25T15:57:39.119Z,0.57
2019-04-25T16:00:15.725Z,0.50
2019-04-25T16:02:46.273Z,0.53
2019-04-25T16:05:16.816Z,0.60
2019-04-25T16:07:47.400Z,0.80
2019-04-25T16:10:18.263Z,0.60
2019-04-25T16:12:48.789Z,0.50
2019-04-25T16:15:19.238Z,0.50
2019-04-25T16:17:49.762Z,0.40
2019-04-25T16:20:21.003Z,0.40
2019-04-25T16:22:51.869Z,0.40
2019-04-25T16:25:23.916Z,0.50
2019-04-25T16:27:54.452Z,0.30
2019-04-25T16:30:29.519Z,0.50
2019-04-25T16:33:00.253Z,0.50
2019-04-25T16:35:31.011Z,0.50
2019-04-25T16:38:01.821Z,0.37
2019-04-25T16:40:32.368Z,0.50
2019-04-25T16:43:04.536Z,0.47
2019-04-25T16:45:37.742Z,0.70
2019-04-25T16:48:08.427Z,0.60
2019-04-25T16:50:39.962Z,0.50
2019-04-25T16:53:10.715Z,0.60
2019-04-25T16:55:41.296Z,0.67
2019-04-25T16:58:12.483Z,0.30
2019-04-25T17:01:17.283Z,0.60
2019-04-25T17:03:47.850Z,0.30
2019-04-25T17:06:18.384Z,0.40
2019-04-25T17:08:48.869Z,0.40
2019-04-25T17:11:19.533Z,0.40
2019-04-25T17:14:00.053Z,0.63
2019-04-25T17:17:01.977Z,0.40
2019-04-25T17:19:46.986Z,0.60
2019-04-25T17:22:17.485Z,0.60
2019-04-25T17:24:48.309Z,0.50
2019-04-25T17:27:19.282Z,0.60
2019-04-25T17:29:50.068Z,0.50
2019-04-25T17:32:29.247Z,0.50
2019-04-25T17:35:18.081Z,0.50
2019-04-25T17:38:07.664Z,0.40
2019-04-25T17:40:38.234Z,0.50
2019-04-25T17:43:11.350Z,0.60
2019-04-25T17:45:41.754Z,0.40
2019-04-25T17:48:12.434Z,0.60
2019-04-25T17:50:44.172Z,0.40
2019-04-25T17:53:14.789Z,0.40
2019-04-25T17:55:45.411Z,0.93
2019-04-25T17:58:15.951Z,0.40
2019-04-25T18:00:47.485Z,0.40
2019-04-25T18:03:19.413Z,0.43
2019-04-25T18:05:53.833Z,0.47
2019-04-25T18:08:24.325Z,0.40
2019-04-25T18:10:54.940Z,0.40
2019-04-25T18:13:25.505Z,0.40
2019-04-25T18:16:14.138Z,0.70
2019-04-25T18:18:56.645Z,0.57
2019-04-25T18:21:28.367Z,0.80
2019-04-25T18:24:28.631Z,0.80
2019-04-25T18:27:03.981Z,0.80
2019-04-25T18:29:36.062Z,0.80
2019-04-25T18:32:07.650Z,0.50
2019-04-25T18:34:50.436Z,0.93
2019-04-25T18:37:33.209Z,0.97
2019-04-25T18:40:10.073Z,0.87
2019-04-25T18:43:06.916Z,0.90
2019-04-25T18:45:38.893Z,0.90
2019-04-25T18:48:10.906Z,0.83
2019-04-25T18:50:42.525Z,0.60
2019-04-25T18:53:37.721Z,0.97
2019-04-25T18:56:25.055Z,1.07
2019-04-25T18:59:32.743Z,0.90
2019-04-25T19:02:22.469Z,1.23
2019-04-25T19:05:21.304Z,0.87
2019-04-25T19:07:52.123Z,0.80
2019-04-25T19:10:23.749Z,0.50
2019-04-25T19:12:54.697Z,1.03
2019-04-25T19:15:25.484Z,0.90
2019-04-25T19:17:56.218Z,0.40
2019-04-25T19:20:27.061Z,0.70
2019-04-25T19:22:57.985Z,0.80
2019-04-25T19:25:28.676Z,0.77
2019-04-25T19:27:59.497Z,0.70
2019-04-25T19:30:30.283Z,0.70
2019-04-25T19:33:00.965Z,0.60
2019-04-25T19:35:31.663Z,0.57
2019-04-25T19:38:03.557Z,0.60
2019-04-25T19:40:52.284Z,0.70
2019-04-25T19:43:27.786Z,0.77
2019-04-25T19:45:58.847Z,0.70
2019-04-25T19:48:30.567Z,0.80
2019-04-25T19:51:01.626Z,0.57
2019-04-25T19:53:33.653Z,1.00
2019-04-25T19:56:05.243Z,0.70
2019-04-25T19:58:35.889Z,0.70
2019-04-25T20:01:06.689Z,0.80
2019-04-25T20:03:55.675Z,0.80
2019-04-25T20:06:26.539Z,0.62
2019-04-25T20:09:25.108Z,0.80
2019-04-25T20:11:56.393Z,0.50
2019-04-25T20:14:26.959Z,0.63
2019-04-25T20:16:57.602Z,0.70
2019-04-25T20:19:28.119Z,0.47
2019-04-25T20:21:58.595Z,0.63
2019-04-25T20:24:29.350Z,0.50
2019-04-25T20:26:59.993Z,0.40
2019-04-25T20:29:30.557Z,0.60
2019-04-25T20:32:01.031Z,0.40
2019-04-25T20:34:31.881Z,0.70
2019-04-25T20:37:02.432Z,0.47
2019-04-25T20:42:09.798Z,0.50
2019-04-25T20:44:41.231Z,0.57
2019-04-25T20:47:11.758Z,0.50
2019-04-25T20:49:42.214Z,0.40
2019-04-25T20:52:12.690Z,0.40
2019-04-25T20:54:43.528Z,0.40
2019-04-25T20:57:14.075Z,0.40
2019-04-25T20:59:44.602Z,0.60
2019-04-25T21:02:15.335Z,0.40
2019-04-25T21:04:45.852Z,0.50
2019-04-25T21:07:16.457Z,0.50
2019-04-25T21:09:47.388Z,0.63
2019-04-25T21:12:17.853Z,0.50
2019-04-25T21:15:03.749Z,0.53
2019-04-25T21:17:37.785Z,0.40
2019-04-25T21:20:08.717Z,0.53
2019-04-25T21:22:39.308Z,0.40
2019-04-25T21:25:11.325Z,0.47
2019-04-25T21:27:42.329Z,0.50
2019-04-25T21:30:12.911Z,0.60
